createdAt,value
2018-08-24T00:00:15.829Z,21.83
2018-08-24T00:02:43.131Z,22.70
2018-08-24T00:05:10.435Z,23.80
2018-08-24T00:07:37.731Z,21.97
2018-08-24T00:10:05.398Z,21.33
2018-08-24T00:12:32.661Z,21.70
2018-08-24T00:14:59.930Z,22.57
2018-08-24T00:17:31.261Z,20.27
2018-08-24T00:19:58.961Z,18.13
2018-08-24T00:22:26.445Z,23.10
2018-08-24T00:24:53.717Z,21.17
2018-08-24T00:27:21.110Z,19.90
2018-08-24T00:29:48.393Z,19.80
2018-08-24T00:32:15.676Z,19.83
2018-08-24T00:34:42.980Z,19.17
2018-08-24T00:37:10.626Z,19.03
2018-08-24T00:39:42.056Z,17.93
2018-08-24T00:42:09.372Z,20.63
2018-08-24T00:44:36.639Z,16.43
2018-08-24T00:47:03.931Z,19.57
2018-08-24T00:49:31.262Z,18.63
2018-08-24T00:51:58.533Z,17.50
2018-08-24T00:54:25.800Z,17.40
2018-08-24T00:56:53.120Z,17.70
2018-08-24T00:59:20.406Z,17.17
2018-08-24T01:01:48.106Z,16.17
2018-08-24T01:04:19.768Z,16.50
2018-08-24T01:06:47.041Z,16.27
2018-08-24T01:09:14.356Z,17.03
2018-08-24T01:11:47.013Z,17.17
2018-08-24T01:14:14.293Z,16.20
2018-08-24T01:16:46.970Z,15.10
2018-08-24T01:19:14.281Z,14.47
2018-08-24T01:21:41.626Z,16.23
2018-08-24T01:24:08.929Z,13.83
2018-08-24T01:26:36.397Z,15.13
2018-08-24T01:29:03.671Z,15.43
2018-08-24T01:31:30.970Z,14.90
2018-08-24T01:33:58.281Z,15.53
2018-08-24T01:36:25.572Z,13.97
2018-08-24T01:38:52.849Z,13.67
2018-08-24T01:41:20.167Z,13.77
2018-08-24T01:43:47.464Z,13.77
2018-08-24T01:46:15.683Z,14.10
2018-08-24T01:48:43.061Z,12.90
2018-08-24T01:51:10.359Z,13.23
2018-08-24T01:53:37.641Z,13.50
2018-08-24T01:56:05.074Z,12.13
2018-08-24T01:58:32.361Z,12.63
2018-08-24T02:00:59.645Z,13.60
2018-08-24T02:03:26.958Z,13.30
2018-08-24T02:05:59.710Z,14.03
2018-08-24T02:08:27.041Z,12.20
2018-08-24T02:10:54.337Z,13.37
2018-08-24T02:13:27.102Z,16.17
2018-08-24T02:15:54.422Z,13.63
2018-08-24T02:18:27.293Z,16.00
2018-08-24T02:21:00.088Z,12.57
2018-08-24T02:23:27.389Z,13.33
2018-08-24T02:25:54.676Z,12.53
2018-08-24T02:28:21.962Z,11.03
2018-08-24T02:30:49.241Z,15.13
2018-08-24T02:33:16.560Z,13.07
2018-08-24T02:35:43.886Z,14.43
2018-08-24T02:38:11.167Z,16.90
2018-08-24T02:40:38.504Z,15.97
2018-08-24T02:43:06.603Z,18.47
2018-08-24T02:45:34.038Z,17.17
2018-08-24T02:48:01.520Z,16.80
2018-08-24T02:50:28.818Z,17.53
2018-08-24T02:52:56.091Z,17.20
2018-08-24T02:55:23.418Z,17.60
2018-08-24T02:57:50.711Z,15.27
2018-08-24T03:00:18.567Z,16.57
2018-08-24T03:02:46.802Z,16.33
2018-08-24T03:05:14.156Z,14.43
2018-08-24T03:07:41.417Z,13.43
2018-08-24T03:10:08.746Z,12.17
2018-08-24T03:12:36.045Z,12.30
2018-08-24T03:15:03.373Z,11.07
2018-08-24T03:17:36.099Z,10.50
2018-08-24T03:20:03.429Z,11.13
2018-08-24T03:22:30.718Z,8.30
2018-08-24T03:24:58.087Z,9.17
2018-08-24T03:27:25.358Z,8.13
2018-08-24T03:29:52.650Z,7.63
2018-08-24T03:32:20.005Z,7.60
2018-08-24T03:34:47.296Z,6.50
2018-08-24T03:37:14.606Z,6.63
2018-08-24T03:39:41.915Z,5.90
2018-08-24T03:42:10.098Z,4.87
2018-08-24T03:44:37.383Z,6.07
2018-08-24T03:47:04.813Z,5.60
2018-08-24T03:49:32.094Z,4.50
2018-08-24T03:51:59.446Z,4.80
2018-08-24T03:54:26.726Z,4.30
2018-08-24T03:56:55.915Z,4.87
2018-08-24T03:59:23.912Z,6.27
2018-08-24T04:01:51.643Z,5.00
2018-08-24T04:04:18.946Z,4.73
2018-08-24T04:06:46.465Z,4.83
2018-08-24T04:09:14.454Z,4.40
2018-08-24T04:11:41.725Z,4.47
2018-08-24T04:14:09.012Z,4.73
2018-08-24T04:16:41.692Z,4.47
2018-08-24T04:19:26.816Z,4.03
2018-08-24T04:21:54.448Z,4.70
2018-08-24T04:24:21.939Z,3.57
2018-08-24T04:26:49.230Z,3.80
2018-08-24T04:29:16.477Z,3.53
2018-08-24T04:31:43.779Z,3.33
2018-08-24T04:34:11.035Z,3.50
2018-08-24T04:36:38.414Z,4.47
2018-08-24T04:39:06.806Z,3.73
2018-08-24T04:41:34.102Z,3.63
2018-08-24T04:44:01.411Z,3.60
2018-08-24T04:46:28.700Z,3.77
2018-08-24T04:48:56.013Z,4.00
2018-08-24T04:51:23.406Z,3.53
2018-08-24T04:53:50.718Z,3.80
2018-08-24T04:56:18.106Z,4.27
2018-08-24T04:58:45.491Z,4.00
2018-08-24T05:01:12.849Z,3.87
2018-08-24T05:03:40.187Z,4.10
2018-08-24T05:06:07.464Z,4.00
2018-08-24T05:08:34.742Z,4.10
2018-08-24T05:11:02.043Z,3.70
2018-08-24T05:13:29.742Z,5.00
2018-08-24T05:15:57.086Z,4.63
2018-08-24T05:18:24.389Z,5.87
2018-08-24T05:20:51.798Z,6.40
2018-08-24T05:23:19.099Z,6.57
2018-08-24T05:25:46.395Z,6.77
2018-08-24T05:28:14.085Z,8.00
2018-08-24T05:30:41.309Z,7.80
2018-08-24T05:33:08.603Z,7.87
2018-08-24T05:35:35.903Z,7.67
2018-08-24T05:38:03.188Z,9.23
2018-08-24T05:40:30.462Z,8.60
2018-08-24T05:42:57.725Z,9.90
2018-08-24T05:45:25.055Z,9.63
2018-08-24T05:47:52.334Z,9.60
2018-08-24T05:50:19.597Z,10.53
2018-08-24T05:52:46.920Z,10.73
2018-08-24T05:55:14.190Z,9.43
2018-08-24T05:57:41.491Z,9.80
2018-08-24T06:00:08.867Z,8.90
2018-08-24T06:02:36.162Z,8.77
2018-08-24T06:05:03.491Z,8.70
2018-08-24T06:07:30.785Z,9.50
2018-08-24T06:09:58.057Z,8.33
2018-08-24T06:12:25.361Z,8.10
2018-08-24T06:14:52.642Z,8.30
2018-08-24T06:17:25.505Z,11.27
2018-08-24T06:19:52.819Z,8.90
2018-08-24T06:22:20.144Z,8.93
2018-08-24T06:24:47.416Z,8.47
2018-08-24T06:27:14.691Z,10.60
2018-08-24T06:29:42.073Z,9.40
2018-08-24T06:32:09.399Z,9.30
2018-08-24T06:34:36.666Z,10.80
2018-08-24T06:37:03.938Z,9.67
2018-08-24T06:39:31.240Z,10.50
2018-08-24T06:41:58.600Z,10.23
2018-08-24T06:44:25.856Z,11.03
2018-08-24T06:46:53.132Z,10.17
2018-08-24T06:49:20.422Z,9.50
2018-08-24T06:51:50.727Z,9.63
2018-08-24T06:54:17.995Z,9.73
2018-08-24T06:56:45.342Z,9.77
2018-08-24T06:59:12.661Z,9.17
2018-08-24T07:01:39.970Z,9.73
2018-08-24T07:04:07.264Z,9.23
2018-08-24T07:06:34.550Z,11.10
2018-08-24T07:09:01.906Z,10.57
2018-08-24T07:11:29.152Z,9.57
2018-08-24T07:13:56.428Z,10.93
2018-08-24T07:16:23.713Z,9.53
2018-08-24T07:18:50.978Z,11.30
2018-08-24T07:21:18.266Z,11.03
2018-08-24T07:23:45.535Z,10.10
2018-08-24T07:26:12.814Z,10.23
2018-08-24T07:28:40.330Z,10.17
2018-08-24T07:31:07.977Z,16.53
2018-08-24T07:33:35.255Z,9.50
2018-08-24T07:36:02.525Z,8.60
2018-08-24T07:38:29.855Z,10.17
2018-08-24T07:40:57.139Z,9.10
2018-08-24T07:43:25.554Z,9.67
2018-08-24T07:45:52.943Z,9.80
2018-08-24T07:48:20.231Z,9.97
2018-08-24T07:50:47.559Z,10.10
2018-08-24T07:53:14.825Z,9.23
2018-08-24T07:55:42.108Z,9.90
2018-08-24T07:58:09.405Z,9.23
2018-08-24T08:00:36.698Z,8.83
2018-08-24T08:03:03.973Z,9.17
2018-08-24T08:05:31.270Z,9.67
2018-08-24T08:07:58.590Z,9.67
2018-08-24T08:10:30.196Z,10.30
2018-08-24T08:12:57.489Z,9.87
2018-08-24T08:15:24.787Z,9.10
2018-08-24T08:17:52.084Z,9.63
2018-08-24T08:20:19.483Z,11.30
2018-08-24T08:22:46.785Z,9.13
2018-08-24T08:25:14.053Z,9.90
2018-08-24T08:27:41.339Z,8.83
2018-08-24T08:30:08.621Z,9.03
2018-08-24T08:32:35.899Z,9.73
2018-08-24T08:35:03.196Z,9.70
2018-08-24T08:37:30.485Z,10.00
2018-08-24T08:40:00.013Z,9.80
2018-08-24T08:42:27.376Z,9.30
2018-08-24T08:44:54.689Z,8.87
2018-08-24T08:47:21.994Z,9.33
2018-08-24T08:49:49.285Z,9.13
2018-08-24T08:52:16.571Z,9.30
2018-08-24T08:54:43.820Z,9.50
2018-08-24T08:57:11.133Z,8.80
2018-08-24T08:59:38.470Z,8.40
2018-08-24T09:02:06.003Z,10.10
2018-08-24T09:04:33.281Z,8.03
2018-08-24T09:07:00.557Z,7.77
2018-08-24T09:09:27.895Z,7.70
2018-08-24T09:11:55.156Z,8.40
2018-08-24T09:14:22.415Z,7.60
2018-08-24T09:16:49.727Z,7.27
2018-08-24T09:19:22.643Z,8.13
2018-08-24T09:21:55.212Z,8.80
2018-08-24T09:24:27.942Z,8.27
2018-08-24T09:27:00.735Z,8.60
2018-08-24T09:29:28.908Z,8.83
2018-08-24T09:31:57.300Z,9.33
2018-08-24T09:34:24.724Z,9.10
2018-08-24T09:36:52.162Z,8.80
2018-08-24T09:39:25.271Z,8.93
2018-08-24T09:41:53.054Z,8.07
2018-08-24T09:44:20.333Z,8.63
2018-08-24T09:46:53.100Z,8.20
2018-08-24T09:49:25.781Z,8.63
2018-08-24T09:51:53.053Z,9.33
2018-08-24T09:54:20.346Z,8.40
2018-08-24T09:56:47.659Z,8.70
2018-08-24T09:59:14.898Z,8.73
2018-08-24T10:01:47.651Z,9.17
2018-08-24T10:04:20.358Z,8.97
2018-08-24T10:06:53.313Z,9.70
2018-08-24T10:09:20.567Z,12.83
2018-08-24T10:11:48.232Z,9.37
2018-08-24T10:14:15.497Z,9.77
2018-08-24T10:16:42.758Z,10.80
2018-08-24T10:19:13.093Z,22.80
2018-08-24T10:21:40.362Z,31.20
2018-08-24T10:24:07.800Z,30.33
2018-08-24T10:26:35.065Z,32.90
2018-08-24T10:29:03.236Z,35.80
2018-08-24T10:31:32.920Z,29.73
2018-08-24T10:34:02.215Z,32.63
2018-08-24T10:36:29.586Z,30.23
2018-08-24T10:38:57.000Z,28.05
2018-08-24T10:41:24.229Z,26.43
2018-08-24T10:43:51.465Z,27.70
2018-08-24T10:46:18.757Z,17.95
2018-08-24T10:48:46.044Z,14.90
2018-08-24T10:51:13.350Z,12.40
2018-08-24T10:53:40.671Z,12.63
2018-08-24T10:56:07.996Z,13.50
2018-08-24T10:58:35.805Z,17.03
2018-08-24T11:01:03.073Z,18.13
2018-08-24T11:03:30.390Z,21.10
2018-08-24T11:05:57.676Z,19.77
2018-08-24T11:08:24.963Z,20.63
2018-08-24T11:10:52.270Z,21.00
2018-08-24T11:13:19.579Z,24.60
2018-08-24T11:15:49.532Z,24.37
2018-08-24T11:18:17.091Z,22.80
2018-08-24T11:20:44.416Z,23.20
2018-08-24T11:23:11.805Z,21.47
2018-08-24T11:25:38.997Z,20.47
2018-08-24T11:28:06.359Z,21.87
2018-08-24T11:30:33.646Z,21.90
2018-08-24T11:33:00.944Z,20.73
2018-08-24T11:35:28.462Z,20.47
2018-08-24T11:37:55.745Z,20.17
2018-08-24T11:40:23.074Z,17.47
2018-08-24T11:42:50.537Z,18.17
2018-08-24T11:45:17.837Z,17.57
2018-08-24T11:47:45.865Z,16.63
2018-08-24T11:50:14.212Z,12.83
2018-08-24T11:52:41.502Z,13.23
2018-08-24T11:55:08.974Z,13.00
2018-08-24T11:57:36.438Z,14.13
2018-08-24T12:00:04.029Z,12.90
2018-08-24T12:02:33.140Z,11.53
2018-08-24T12:05:00.627Z,9.90
2018-08-24T12:07:28.302Z,9.43
2018-08-24T12:09:55.620Z,7.73
2018-08-24T12:12:22.967Z,8.77
2018-08-24T12:14:50.223Z,7.67
2018-08-24T12:17:22.816Z,7.13
2018-08-24T12:19:50.092Z,7.03
2018-08-24T12:22:17.383Z,7.60
2018-08-24T12:24:44.656Z,8.53
2018-08-24T12:27:12.039Z,6.60
2018-08-24T12:29:39.285Z,6.80
2018-08-24T12:32:06.590Z,6.27
2018-08-24T12:34:33.882Z,7.70
2018-08-24T12:37:01.150Z,7.60
2018-08-24T12:39:28.411Z,5.80
2018-08-24T12:41:55.714Z,6.67
2018-08-24T12:44:23.020Z,4.90
2018-08-24T12:46:50.335Z,6.30
2018-08-24T12:49:17.759Z,6.23
2018-08-24T12:51:45.008Z,6.90
2018-08-24T12:54:12.306Z,6.13
2018-08-24T12:56:39.615Z,6.27
2018-08-24T12:59:06.894Z,6.23
2018-08-24T13:01:34.179Z,6.50
2018-08-24T13:04:01.434Z,6.03
2018-08-24T13:06:28.741Z,6.53
2018-08-24T13:08:56.006Z,4.73
2018-08-24T13:11:23.376Z,8.70
2018-08-24T13:13:50.655Z,5.60
2018-08-24T13:16:17.936Z,9.57
2018-08-24T13:18:45.278Z,5.07
2018-08-24T13:21:12.589Z,4.30
2018-08-24T13:23:40.075Z,4.23
2018-08-24T13:26:07.375Z,4.77
2018-08-24T13:28:34.626Z,4.67
2018-08-24T13:31:01.926Z,3.87
2018-08-24T13:33:29.213Z,6.10
2018-08-24T13:35:56.506Z,4.17
2018-08-24T13:38:23.754Z,3.83
2018-08-24T13:40:51.075Z,5.03
2018-08-24T13:43:18.346Z,4.23
2018-08-24T13:45:45.596Z,4.40
2018-08-24T13:48:13.582Z,3.83
2018-08-24T13:50:40.861Z,4.10
2018-08-24T13:53:08.147Z,3.93
2018-08-24T13:55:35.444Z,5.60
2018-08-24T13:58:02.879Z,5.40
2018-08-24T14:00:30.146Z,5.50
2018-08-24T14:02:57.778Z,5.90
2018-08-24T14:05:25.196Z,6.10
2018-08-24T14:07:52.462Z,5.50
2018-08-24T14:10:19.710Z,6.07
2018-08-24T14:12:47.053Z,5.00
2018-08-24T14:15:14.335Z,5.37
2018-08-24T14:17:41.715Z,3.50
2018-08-24T14:20:09.076Z,4.83
2018-08-24T14:22:36.567Z,5.40
2018-08-24T14:25:04.199Z,5.10
2018-08-24T14:27:31.548Z,3.80
2018-08-24T14:29:58.830Z,6.17
2018-08-24T14:32:26.141Z,5.17
2018-08-24T14:34:53.431Z,5.00
2018-08-24T14:37:20.745Z,5.67
2018-08-24T14:39:48.100Z,4.30
2018-08-24T14:42:15.342Z,3.83
2018-08-24T14:44:42.632Z,4.33
2018-08-24T14:47:09.898Z,4.40
2018-08-24T14:49:37.202Z,5.83
2018-08-24T14:52:04.590Z,4.87
2018-08-24T14:54:31.889Z,6.27
2018-08-24T14:56:59.141Z,3.80
2018-08-24T14:59:26.485Z,6.60
2018-08-24T15:01:53.821Z,4.63
2018-08-24T15:04:21.149Z,6.37
2018-08-24T15:06:48.389Z,9.07
2018-08-24T15:09:15.679Z,5.10
2018-08-24T15:11:42.962Z,8.43
2018-08-24T15:14:10.579Z,5.80
2018-08-24T15:16:38.182Z,6.67
2018-08-24T15:19:05.728Z,6.30
2018-08-24T15:21:32.998Z,4.97
2018-08-24T15:24:00.307Z,9.30
2018-08-24T15:26:27.588Z,6.57
2018-08-24T15:28:54.932Z,4.47
2018-08-24T15:31:22.192Z,5.57
2018-08-24T15:33:49.522Z,5.77
2018-08-24T15:36:16.779Z,3.40
2018-08-24T15:38:44.046Z,3.80
2018-08-24T15:41:11.323Z,3.13
2018-08-24T15:43:38.610Z,5.90
2018-08-24T15:46:06.131Z,6.10
2018-08-24T15:48:33.414Z,5.70
2018-08-24T15:51:00.701Z,5.27
2018-08-24T15:53:27.989Z,4.03
2018-08-24T15:55:55.262Z,4.83
2018-08-24T15:58:22.595Z,7.30
2018-08-24T16:00:49.916Z,5.60
2018-08-24T16:03:17.169Z,5.63
2018-08-24T16:05:44.427Z,7.73
2018-08-24T16:08:11.713Z,4.00
2018-08-24T16:10:38.959Z,4.63
2018-08-24T16:13:06.259Z,6.23
2018-08-24T16:15:33.552Z,6.93
2018-08-24T16:18:06.362Z,4.40
2018-08-24T16:20:33.659Z,5.00
2018-08-24T16:23:00.938Z,6.53
2018-08-24T16:25:28.278Z,7.90
2018-08-24T16:27:55.529Z,5.57
2018-08-24T16:30:22.876Z,6.20
2018-08-24T16:32:50.081Z,3.93
2018-08-24T16:35:17.398Z,4.10
2018-08-24T16:37:44.679Z,6.83
2018-08-24T16:40:11.956Z,5.43
2018-08-24T16:42:39.289Z,6.60
2018-08-24T16:45:06.629Z,8.07
2018-08-24T16:47:34.084Z,5.60
2018-08-24T16:50:01.391Z,4.30
2018-08-24T16:52:28.715Z,7.70
2018-08-24T16:54:55.952Z,5.70
2018-08-24T16:57:23.234Z,7.03
2018-08-24T16:59:50.493Z,8.57
2018-08-24T17:02:22.538Z,9.27
2018-08-24T17:04:49.803Z,4.47
2018-08-24T17:07:17.111Z,6.10
2018-08-24T17:09:44.394Z,5.20
2018-08-24T17:12:11.708Z,4.10
2018-08-24T17:14:39.035Z,7.30
2018-08-24T17:17:06.364Z,5.83
2018-08-24T17:19:33.641Z,3.60
2018-08-24T17:22:00.954Z,5.03
2018-08-24T17:24:28.295Z,5.00
2018-08-24T17:26:55.545Z,7.73
2018-08-24T17:29:22.826Z,4.30
2018-08-24T17:31:50.139Z,3.53
2018-08-24T17:34:17.407Z,4.03
2018-08-24T17:36:46.834Z,3.30
2018-08-24T17:39:14.095Z,5.80
2018-08-24T17:41:41.493Z,5.50
2018-08-24T17:44:08.997Z,7.60
2018-08-24T17:46:36.311Z,6.70
2018-08-24T17:49:04.068Z,9.20
2018-08-24T17:51:31.338Z,3.90
2018-08-24T17:53:58.670Z,5.40
2018-08-24T17:56:25.982Z,5.47
2018-08-24T17:58:53.299Z,4.10
2018-08-24T18:01:20.603Z,7.93
2018-08-24T18:03:47.931Z,4.20
2018-08-24T18:06:15.224Z,4.67
2018-08-24T18:08:42.500Z,6.53
2018-08-24T18:11:09.770Z,4.47
2018-08-24T18:13:37.045Z,3.63
2018-08-24T18:16:04.733Z,3.77
2018-08-24T18:18:32.011Z,4.77
2018-08-24T18:20:59.282Z,2.97
2018-08-24T18:23:26.576Z,4.70
2018-08-24T18:25:53.834Z,4.87
2018-08-24T18:28:21.098Z,3.67
2018-08-24T18:30:48.360Z,3.90
2018-08-24T18:33:16.716Z,3.70
2018-08-24T18:35:44.018Z,3.60
2018-08-24T18:38:11.547Z,3.93
2018-08-24T18:40:41.673Z,6.27
2018-08-24T18:43:09.483Z,4.67
2018-08-24T18:45:36.998Z,4.80
2018-08-24T18:48:04.299Z,5.03
2018-08-24T18:50:31.645Z,7.20
2018-08-24T18:52:59.020Z,5.60
2018-08-24T18:55:26.695Z,4.70
2018-08-24T18:57:54.152Z,4.53
2018-08-24T19:00:22.571Z,8.40
2018-08-24T19:02:49.861Z,6.07
2018-08-24T19:05:17.168Z,6.83
2018-08-24T19:07:45.119Z,5.17
2018-08-24T19:10:12.411Z,3.40
2018-08-24T19:12:39.752Z,5.63
2018-08-24T19:15:07.050Z,3.43
2018-08-24T19:17:39.795Z,3.10
2018-08-24T19:20:12.615Z,4.23
2018-08-24T19:22:42.893Z,6.40
2018-08-24T19:25:10.223Z,7.37
2018-08-24T19:27:43.241Z,3.17
2018-08-24T19:30:16.151Z,6.00
2018-08-24T19:32:43.806Z,3.20
2018-08-24T19:35:11.606Z,3.70
2018-08-24T19:37:38.919Z,4.47
2018-08-24T19:40:11.919Z,4.23
2018-08-24T19:42:39.195Z,5.80
2018-08-24T19:45:06.485Z,5.27
2018-08-24T19:47:39.336Z,3.73
2018-08-24T19:50:06.702Z,3.97
2018-08-24T19:52:33.996Z,4.50
2018-08-24T19:55:01.284Z,8.40
2018-08-24T19:57:34.971Z,3.67
2018-08-24T20:00:02.442Z,5.20
2018-08-24T20:02:29.867Z,3.30
2018-08-24T20:04:57.137Z,6.87
2018-08-24T20:07:30.051Z,4.33
2018-08-24T20:10:06.293Z,5.10
2018-08-24T20:12:33.665Z,4.07
2018-08-24T20:15:08.112Z,4.90
2018-08-24T20:17:37.884Z,3.37
2018-08-24T20:20:07.174Z,6.87
2018-08-24T20:22:34.673Z,4.20
2018-08-24T20:25:03.501Z,4.00
2018-08-24T20:27:31.482Z,4.10
2018-08-24T20:29:59.537Z,4.53
2018-08-24T20:32:27.796Z,5.90
2018-08-24T20:34:55.684Z,4.83
2018-08-24T20:37:25.043Z,3.80
2018-08-24T20:39:53.680Z,3.97
2018-08-24T20:42:22.094Z,7.27
2018-08-24T20:44:50.924Z,9.80
2018-08-24T20:47:18.608Z,3.67
2018-08-24T20:49:46.739Z,5.33
2018-08-24T20:52:14.537Z,5.80
2018-08-24T20:54:42.690Z,5.53
2018-08-24T20:57:11.183Z,3.43
2018-08-24T20:59:40.366Z,4.30
2018-08-24T21:02:10.153Z,3.62
2018-08-24T21:04:39.101Z,5.53
2018-08-24T21:07:07.895Z,4.78
2018-08-24T21:09:37.122Z,4.47
2018-08-24T21:12:04.909Z,3.17
2018-08-24T21:14:32.453Z,8.78
2018-08-24T21:17:02.346Z,5.62
2018-08-24T21:19:31.267Z,3.83
2018-08-24T21:21:59.510Z,4.63
2018-08-24T21:24:27.886Z,6.08
2018-08-24T21:26:56.854Z,5.72
2018-08-24T21:29:25.467Z,3.42
2018-08-24T21:31:53.863Z,4.37
2018-08-24T21:34:22.444Z,3.37
2018-08-24T21:36:50.559Z,4.83
2018-08-24T21:39:18.259Z,4.00
2018-08-24T21:41:46.379Z,5.80
2018-08-24T21:44:14.551Z,4.60
2018-08-24T21:46:42.598Z,3.52
2018-08-24T21:49:11.467Z,4.33
2018-08-24T21:51:41.081Z,4.65
2018-08-24T21:54:09.072Z,4.70
2018-08-24T21:56:37.640Z,4.00
2018-08-24T21:59:06.004Z,5.47
2018-08-24T22:01:34.030Z,5.55
2018-08-24T22:04:01.652Z,4.08
2018-08-24T22:06:30.496Z,4.22
2018-08-24T22:08:58.715Z,5.12
2018-08-24T22:11:26.183Z,5.55
2018-08-24T22:13:53.453Z,5.33
2018-08-24T22:16:20.753Z,6.53
2018-08-24T22:18:48.060Z,4.47
2018-08-24T22:21:15.326Z,3.83
2018-08-24T22:23:42.648Z,5.75
2018-08-24T22:26:09.907Z,5.28
2018-08-24T22:28:37.243Z,4.95
2018-08-24T22:31:04.908Z,4.80
2018-08-24T22:33:32.198Z,4.30
2018-08-24T22:35:59.499Z,4.53
2018-08-24T22:38:26.762Z,5.45
2018-08-24T22:40:54.038Z,3.95
2018-08-24T22:43:26.716Z,5.35
2018-08-24T22:45:54.003Z,6.50
2018-08-24T22:48:21.263Z,4.55
2018-08-24T22:50:48.598Z,3.65
2018-08-24T22:53:15.866Z,4.50
2018-08-24T22:55:44.019Z,5.55
2018-08-24T22:58:11.334Z,4.85
2018-08-24T23:00:38.647Z,3.85
2018-08-24T23:03:05.952Z,4.40
2018-08-24T23:05:33.259Z,5.22
2018-08-24T23:08:00.563Z,4.12
2018-08-24T23:10:28.645Z,4.25
2018-08-24T23:12:55.944Z,4.72
2018-08-24T23:15:23.280Z,5.60
2018-08-24T23:17:50.708Z,4.40
2018-08-24T23:20:17.958Z,4.50
2018-08-24T23:22:45.269Z,4.70
2018-08-24T23:25:12.545Z,3.45
2018-08-24T23:27:39.821Z,3.42
2018-08-24T23:30:07.164Z,6.60
2018-08-24T23:32:34.478Z,4.58
2018-08-24T23:35:01.897Z,4.87
2018-08-24T23:37:29.324Z,3.90
2018-08-24T23:39:56.586Z,4.20
2018-08-24T23:42:23.888Z,7.70
2018-08-24T23:44:51.194Z,4.83
2018-08-24T23:47:18.477Z,3.50
2018-08-24T23:49:45.796Z,8.65
2018-08-24T23:52:13.115Z,5.05
2018-08-24T23:54:40.496Z,4.97
2018-08-24T23:57:07.781Z,3.20
2018-08-24T23:59:35.045Z,4.35
